createdAt,value
2022-11-16T00:01:34.485Z,99878.10
2022-11-16T00:04:06.465Z,99878.61
2022-11-16T00:06:37.545Z,99879.30
2022-11-16T00:09:23.893Z,99879.29
2022-11-16T00:11:57.103Z,99873.52
2022-11-16T00:14:30.922Z,99869.12
2022-11-16T00:17:02.479Z,99866.41
2022-11-16T00:19:34.236Z,99867.94
2022-11-16T00:22:05.383Z,99865.40
2022-11-16T00:24:36.451Z,99870.31
2022-11-16T00:27:07.580Z,99872.18
2022-11-16T00:29:38.825Z,99871.51
2022-11-16T00:32:10.988Z,99865.73
2022-11-16T00:34:42.079Z,99867.42
2022-11-16T00:37:13.212Z,99866.58
2022-11-16T00:39:44.532Z,99864.71
2022-11-16T00:42:17.056Z,99863.53
2022-11-16T00:44:48.147Z,99860.98
2022-11-16T00:47:19.312Z,99861.32
2022-11-16T00:49:50.544Z,99860.47
2022-11-16T00:52:21.947Z,99864.71
2022-11-16T00:54:53.208Z,99866.23
2022-11-16T00:57:24.526Z,99866.59
2022-11-16T00:59:55.836Z,99860.64
2022-11-16T01:02:29.343Z,99859.12
2022-11-16T01:05:00.686Z,99852.66
2022-11-16T01:07:33.494Z,99848.42
2022-11-16T01:10:06.154Z,99843.84
2022-11-16T01:12:37.209Z,99840.10
2022-11-16T01:15:10.529Z,99837.39
2022-11-16T01:17:42.489Z,99839.92
2022-11-16T01:20:18.309Z,99836.88
2022-11-16T01:22:49.762Z,99831.95
2022-11-16T01:25:21.809Z,99829.92
2022-11-16T01:27:52.962Z,99828.05
2022-11-16T01:30:30.524Z,99824.66
2022-11-16T01:33:06.321Z,99823.13
2022-11-16T01:35:37.573Z,99827.89
2022-11-16T01:38:08.924Z,99826.35
2022-11-16T01:40:41.295Z,99824.14
2022-11-16T01:43:19.715Z,99820.75
2022-11-16T01:45:52.389Z,99813.11
2022-11-16T01:48:28.641Z,99812.61
2022-11-16T01:51:01.029Z,99811.75
2022-11-16T01:53:33.973Z,99809.71
2022-11-16T01:56:05.885Z,99806.65
2022-11-16T01:58:55.971Z,99799.87
2022-11-16T02:01:30.181Z,99793.08
2022-11-16T02:04:01.742Z,99793.59
2022-11-16T02:06:41.079Z,99789.87
2022-11-16T02:09:48.369Z,99792.58
2022-11-16T02:12:40.678Z,99798.87
2022-11-16T02:15:21.690Z,99800.39
2022-11-16T02:18:14.914Z,99799.71
2022-11-16T02:21:12.615Z,99799.71
2022-11-16T02:24:21.161Z,99794.28
2022-11-16T02:27:16.081Z,99790.21
2022-11-16T02:29:51.174Z,99784.95
2022-11-16T02:32:27.050Z,99783.75
2022-11-16T02:35:03.008Z,99783.23
2022-11-16T02:37:38.899Z,99779.85
2022-11-16T02:40:14.161Z,99774.42
2022-11-16T02:42:46.969Z,99775.77
2022-11-16T02:45:23.854Z,99772.73
2022-11-16T02:47:59.500Z,99769.83
2022-11-16T02:50:33.947Z,99770.35
2022-11-16T02:53:05.267Z,99771.20
2022-11-16T02:55:39.142Z,99773.41
2022-11-16T02:58:13.916Z,99774.59
2022-11-16T03:00:52.326Z,99768.48
2022-11-16T03:03:33.276Z,99769.83
2022-11-16T03:06:08.765Z,99756.76
2022-11-16T03:08:44.880Z,99751.15
2022-11-16T03:11:34.348Z,99750.30
2022-11-16T03:14:10.656Z,99752.33
2022-11-16T03:16:44.978Z,99751.15
2022-11-16T03:19:21.858Z,99755.40
2022-11-16T03:21:56.997Z,99748.79
2022-11-16T03:24:28.322Z,99749.97
2022-11-16T03:27:06.671Z,99744.37
2022-11-16T03:29:42.713Z,99741.48
2022-11-16T03:32:20.183Z,99739.78
2022-11-16T03:34:57.807Z,99737.58
2022-11-16T03:37:31.306Z,99736.56
2022-11-16T03:40:03.945Z,99732.16
2022-11-16T03:42:36.839Z,99733.34
2022-11-16T03:45:09.433Z,99728.77
2022-11-16T03:47:41.058Z,99727.58
2022-11-16T03:50:13.480Z,99732.66
2022-11-16T03:52:44.776Z,99730.13
2022-11-16T03:55:16.573Z,99728.27
2022-11-16T03:57:47.820Z,99727.75
2022-11-16T04:00:19.434Z,99726.90
2022-11-16T04:02:50.246Z,99722.83
2022-11-16T04:05:41.960Z,99724.18
2022-11-16T04:08:35.277Z,99721.45
2022-11-16T04:11:24.436Z,99718.23
2022-11-16T04:14:13.835Z,99716.87
2022-11-16T04:17:02.797Z,99713.98
2022-11-16T04:19:56.793Z,99719.58
2022-11-16T04:22:50.993Z,99718.23
2022-11-16T04:25:26.441Z,99714.64
2022-11-16T04:28:16.751Z,99716.17
2022-11-16T04:31:22.569Z,99710.58
2022-11-16T04:34:17.255Z,99710.23
2022-11-16T04:37:09.569Z,99710.58
2022-11-16T04:39:40.517Z,99710.91
2022-11-16T04:42:22.370Z,99709.38
2022-11-16T04:45:12.868Z,99709.73
2022-11-16T04:47:54.154Z,99707.86
2022-11-16T04:50:28.276Z,99703.13
2022-11-16T04:52:59.617Z,99701.25
2022-11-16T04:55:30.662Z,99705.16
2022-11-16T04:58:02.820Z,99708.71
2022-11-16T05:00:34.188Z,99714.30
2022-11-16T05:03:06.159Z,99712.10
2022-11-16T05:05:37.599Z,99713.96
2022-11-16T05:08:09.331Z,99711.61
2022-11-16T05:10:40.726Z,99708.88
2022-11-16T05:13:11.802Z,99707.02
2022-11-16T05:15:46.068Z,99709.57
2022-11-16T05:18:16.960Z,99705.48
2022-11-16T05:21:03.157Z,99705.34
2022-11-16T05:23:57.709Z,99700.73
2022-11-16T05:26:31.882Z,99700.06
2022-11-16T05:29:03.596Z,99697.67
2022-11-16T05:31:40.115Z,99701.08
2022-11-16T05:34:12.824Z,99702.60
2022-11-16T05:36:43.728Z,99701.59
2022-11-16T05:39:15.624Z,99700.38
2022-11-16T05:41:46.977Z,99699.89
2022-11-16T05:44:18.696Z,99700.73
2022-11-16T05:46:50.496Z,99703.80
2022-11-16T05:49:22.722Z,99703.44
2022-11-16T05:51:54.116Z,99698.69
2022-11-16T05:54:26.856Z,99698.69
2022-11-16T05:56:58.533Z,99699.04
2022-11-16T05:59:30.647Z,99700.23
2022-11-16T06:02:04.128Z,99702.27
2022-11-16T06:04:35.273Z,99702.42
2022-11-16T06:07:06.246Z,99703.27
2022-11-16T06:09:38.006Z,99711.08
2022-11-16T06:12:16.787Z,99712.60
2022-11-16T06:14:47.970Z,99716.67
2022-11-16T06:17:18.829Z,99715.48
2022-11-16T06:19:49.600Z,99717.85
2022-11-16T06:22:20.556Z,99718.04
2022-11-16T06:24:51.496Z,99721.08
2022-11-16T06:27:22.369Z,99721.58
2022-11-16T06:29:53.985Z,99723.29
2022-11-16T06:32:25.555Z,99716.31
2022-11-16T06:34:57.006Z,99713.93
2022-11-16T06:37:28.062Z,99711.73
2022-11-16T06:39:59.784Z,99707.67
2022-11-16T06:42:31.133Z,99709.89
2022-11-16T06:45:03.319Z,99707.51
2022-11-16T06:47:36.671Z,99706.67
2022-11-16T06:50:09.574Z,99704.13
2022-11-16T06:52:40.443Z,99706.86
2022-11-16T06:55:12.169Z,99710.77
2022-11-16T06:57:43.038Z,99714.35
2022-11-16T07:00:16.300Z,99710.95
2022-11-16T07:02:47.682Z,99706.19
2022-11-16T07:05:20.467Z,99708.55
2022-11-16T07:07:56.400Z,99707.02
2022-11-16T07:10:28.099Z,99707.69
2022-11-16T07:12:58.986Z,99706.66
2022-11-16T07:15:30.282Z,99707.48
2022-11-16T07:18:05.777Z,99701.02
2022-11-16T07:20:38.272Z,99697.80
2022-11-16T07:23:14.011Z,99693.55
2022-11-16T07:25:48.970Z,99698.31
2022-11-16T07:28:25.554Z,99696.61
2022-11-16T07:30:56.415Z,99696.96
2022-11-16T07:33:32.717Z,99693.06
2022-11-16T07:36:42.197Z,99693.40
2022-11-16T07:39:13.351Z,99689.67
2022-11-16T07:41:45.281Z,99690.18
2022-11-16T07:44:27.690Z,99686.95
2022-11-16T07:47:09.130Z,99684.58
2022-11-16T07:49:39.966Z,99684.92
2022-11-16T07:52:31.182Z,99686.12
2022-11-16T07:55:05.718Z,99688.32
2022-11-16T07:57:37.354Z,99687.30
2022-11-16T08:00:11.807Z,99683.89
2022-11-16T08:02:47.826Z,99677.45
2022-11-16T08:05:22.054Z,99674.89
2022-11-16T08:07:53.484Z,99674.20
2022-11-16T08:10:26.901Z,99672.50
2022-11-16T08:12:58.411Z,99671.30
2022-11-16T08:15:29.595Z,99669.79
2022-11-16T08:18:01.750Z,99668.59
2022-11-16T08:20:32.987Z,99670.47
2022-11-16T08:23:04.462Z,99672.49
2022-11-16T08:25:37.799Z,99676.91
2022-11-16T08:28:09.004Z,99675.55
2022-11-16T08:30:42.061Z,99675.89
2022-11-16T08:33:13.445Z,99674.54
2022-11-16T08:35:44.387Z,99671.80
2022-11-16T08:38:15.645Z,99674.67
2022-11-16T08:40:47.042Z,99671.78
2022-11-16T08:43:17.923Z,99675.68
2022-11-16T08:45:51.554Z,99672.27
2022-11-16T08:48:23.042Z,99679.23
2022-11-16T08:51:16.277Z,99680.41
2022-11-16T08:53:45.578Z,99678.88
2022-11-16T08:56:17.700Z,99679.91
2022-11-16T08:58:52.616Z,99683.31
2022-11-16T09:01:29.939Z,99684.34
2022-11-16T09:04:01.511Z,99685.73
2022-11-16T09:06:32.737Z,99683.17
2022-11-16T09:09:05.010Z,99684.36
2022-11-16T09:11:36.028Z,99682.66
2022-11-16T09:14:06.889Z,99681.65
2022-11-16T09:16:37.691Z,99682.52
2022-11-16T09:19:08.572Z,99678.95
2022-11-16T09:21:39.441Z,99678.78
2022-11-16T09:24:12.788Z,99675.22
2022-11-16T09:26:43.580Z,99675.22
2022-11-16T09:29:16.341Z,99669.95
2022-11-16T09:31:47.363Z,99667.91
2022-11-16T09:34:18.303Z,99665.68
2022-11-16T09:36:49.513Z,99668.06
2022-11-16T09:39:30.948Z,99666.36
2022-11-16T09:42:16.581Z,99662.96
2022-11-16T09:45:04.663Z,99659.55
2022-11-16T09:47:50.130Z,99658.02
2022-11-16T09:50:30.829Z,99650.89
2022-11-16T09:53:15.078Z,99657.34
2022-11-16T09:55:51.127Z,99656.17
2022-11-16T09:58:27.494Z,99655.67
2022-11-16T10:01:05.404Z,99655.17
2022-11-16T10:03:44.076Z,99654.13
2022-11-16T10:06:22.091Z,99649.38
2022-11-16T10:08:57.059Z,99650.39
2022-11-16T10:11:45.709Z,99646.99
2022-11-16T10:14:33.517Z,99641.91
2022-11-16T10:17:11.128Z,99646.66
2022-11-16T10:19:52.035Z,99638.69
2022-11-16T10:22:36.324Z,99637.32
2022-11-16T10:25:16.335Z,99632.05
2022-11-16T10:28:21.149Z,99625.92
2022-11-16T10:31:04.190Z,99623.35
2022-11-16T10:33:37.971Z,99620.63
2022-11-16T10:36:15.877Z,99617.55
2022-11-16T10:38:47.257Z,99619.91
2022-11-16T10:41:22.586Z,99619.06
2022-11-16T10:43:54.432Z,99614.13
2022-11-16T10:46:30.057Z,99618.36
2022-11-16T10:49:09.339Z,99614.31
2022-11-16T10:51:40.288Z,99616.67
2022-11-16T10:54:16.852Z,99620.58
2022-11-16T10:56:51.069Z,99616.33
2022-11-16T10:59:22.937Z,99613.61
2022-11-16T11:01:54.107Z,99616.81
2022-11-16T11:04:26.857Z,99615.62
2022-11-16T11:06:59.593Z,99611.02
2022-11-16T11:09:32.690Z,99612.38
2022-11-16T11:12:34.114Z,99611.51
2022-11-16T11:15:25.321Z,99613.04
2022-11-16T11:18:17.344Z,99610.84
2022-11-16T11:20:51.146Z,99609.99
2022-11-16T11:23:25.228Z,99613.76
2022-11-16T11:25:58.305Z,99617.35
2022-11-16T11:28:31.937Z,99618.54
2022-11-16T11:31:05.901Z,99619.23
2022-11-16T11:33:40.773Z,99623.15
2022-11-16T11:36:18.915Z,99618.39
2022-11-16T11:39:01.725Z,99617.20
2022-11-16T11:41:38.974Z,99617.38
2022-11-16T11:44:19.299Z,99617.19
2022-11-16T11:47:42.210Z,99614.63
2022-11-16T11:49:52.289Z,99613.09
2022-11-16T11:52:28.620Z,99611.56
2022-11-16T11:55:00.008Z,99609.50
2022-11-16T11:57:35.138Z,99609.13
2022-11-16T12:00:09.263Z,99605.56
2022-11-16T12:03:02.645Z,99610.66
2022-11-16T12:05:51.689Z,99606.96
2022-11-16T12:08:37.844Z,99606.28
2022-11-16T12:11:14.462Z,99602.38
2022-11-16T12:14:00.227Z,99609.35
2022-11-16T12:16:39.479Z,99612.77
2022-11-16T12:19:45.918Z,99618.08
2022-11-16T12:22:23.411Z,99613.90
2022-11-16T12:25:07.267Z,99616.80
2022-11-16T12:27:52.350Z,99626.70
2022-11-16T12:30:25.010Z,99637.25
2022-11-16T12:33:11.857Z,99632.52
2022-11-16T12:35:49.861Z,99634.42
2022-11-16T12:38:38.595Z,99635.47
2022-11-16T12:41:34.233Z,99633.62
2022-11-16T12:44:09.252Z,99634.30
2022-11-16T12:46:53.191Z,99632.61
2022-11-16T12:50:02.543Z,99632.30
2022-11-16T12:52:50.706Z,99632.30
2022-11-16T12:55:28.614Z,99629.92
2022-11-16T12:58:09.739Z,99632.13
2022-11-16T13:01:02.852Z,99631.96
2022-11-16T13:03:42.833Z,99629.08
2022-11-16T13:06:19.611Z,99635.34
2022-11-16T13:09:04.325Z,99635.49
2022-11-16T13:11:39.263Z,99640.91
2022-11-16T13:14:16.674Z,99644.11
2022-11-16T13:16:48.528Z,99648.16
2022-11-16T13:19:20.188Z,99647.98
2022-11-16T13:21:59.907Z,99652.89
2022-11-16T13:24:38.936Z,99653.56
2022-11-16T13:27:22.703Z,99648.13
2022-11-16T13:30:00.620Z,99654.55
2022-11-16T13:32:44.664Z,99652.86
2022-11-16T13:35:18.628Z,99649.80
2022-11-16T13:37:50.515Z,99651.64
2022-11-16T13:40:34.784Z,99652.98
2022-11-16T13:43:15.690Z,99654.83
2022-11-16T13:45:55.585Z,99655.65
2022-11-16T13:48:30.625Z,99651.06
2022-11-16T13:51:01.810Z,99654.42
2022-11-16T13:56:29.416Z,99656.92
2022-11-16T13:59:01.273Z,99654.37
2022-11-16T14:01:59.439Z,99656.72
2022-11-16T14:04:43.869Z,99659.41
2022-11-16T14:07:35.513Z,99659.23
2022-11-16T14:10:08.216Z,99659.55
2022-11-16T14:12:59.258Z,99656.85
2022-11-16T14:15:35.464Z,99665.45
2022-11-16T14:18:37.204Z,99666.45
2022-11-16T14:21:25.770Z,99670.18
2022-11-16T14:24:16.223Z,99669.66
2022-11-16T14:26:59.717Z,99670.50
2022-11-16T14:29:57.364Z,99673.17
2022-11-16T14:32:32.103Z,99672.30
2022-11-16T14:35:06.289Z,99668.71
2022-11-16T14:37:41.534Z,99667.98
2022-11-16T14:40:16.336Z,99666.45
2022-11-16T14:45:48.347Z,99669.31
2022-11-16T14:48:21.811Z,99670.66
2022-11-16T14:51:05.479Z,99665.73
2022-11-16T14:53:39.893Z,99662.65
2022-11-16T14:56:13.641Z,99669.56
2022-11-16T14:58:54.008Z,99665.66
2022-11-16T15:01:27.602Z,99661.60
2022-11-16T15:04:02.724Z,99662.77
2022-11-16T15:06:36.632Z,99657.87
2022-11-16T15:09:08.313Z,99659.38
2022-11-16T15:11:59.706Z,99659.06
2022-11-16T15:14:34.653Z,99661.61
2022-11-16T15:17:07.939Z,99658.23
2022-11-16T15:19:38.804Z,99660.77
2022-11-16T15:22:19.555Z,99662.98
2022-11-16T15:24:57.393Z,99659.91
2022-11-16T15:27:42.539Z,99659.40
2022-11-16T15:30:20.815Z,99660.56
2022-11-16T15:32:53.581Z,99664.48
2022-11-16T15:35:27.051Z,99659.59
2022-11-16T15:38:06.668Z,99657.91
2022-11-16T15:40:38.198Z,99657.91
2022-11-16T15:43:11.690Z,99660.64
2022-11-16T15:45:44.842Z,99661.13
2022-11-16T15:48:20.283Z,99662.83
2022-11-16T15:51:06.721Z,99663.02
2022-11-16T15:53:40.267Z,99662.86
2022-11-16T15:56:17.271Z,99664.58
2022-11-16T15:58:49.607Z,99662.21
2022-11-16T16:01:21.579Z,99660.55
2022-11-16T16:03:59.610Z,99659.88
2022-11-16T16:06:51.392Z,99654.98
2022-11-16T16:09:28.753Z,99657.51
2022-11-16T16:12:19.032Z,99658.36
2022-11-16T16:14:52.267Z,99662.08
2022-11-16T16:17:28.127Z,99666.80
2022-11-16T16:20:00.828Z,99660.73
2022-11-16T16:22:34.130Z,99664.45
2022-11-16T16:25:06.514Z,99663.09
2022-11-16T16:27:41.709Z,99661.55
2022-11-16T16:30:16.814Z,99662.36
2022-11-16T16:32:51.885Z,99666.91
2022-11-16T16:35:25.003Z,99668.46
2022-11-16T16:38:00.988Z,99668.80
2022-11-16T16:40:32.034Z,99672.69
2022-11-16T16:43:02.905Z,99673.56
2022-11-16T16:45:38.880Z,99672.17
2022-11-16T16:48:11.719Z,99673.88
2022-11-16T16:50:42.650Z,99673.71
2022-11-16T16:53:15.253Z,99674.75
2022-11-16T16:55:47.526Z,99674.92
2022-11-16T16:58:18.825Z,99674.92
2022-11-16T17:00:49.682Z,99676.79
2022-11-16T17:03:20.572Z,99680.00
2022-11-16T17:05:53.424Z,99677.27
2022-11-16T17:08:24.256Z,99677.79
2022-11-16T17:10:55.197Z,99673.40
2022-11-16T17:13:25.985Z,99676.96
2022-11-16T17:15:57.043Z,99676.48
2022-11-16T17:18:28.148Z,99678.70
2022-11-16T17:21:03.665Z,99680.23
2022-11-16T17:23:35.209Z,99682.95
2022-11-16T17:26:08.419Z,99682.46
2022-11-16T17:28:39.233Z,99686.36
2022-11-16T17:31:11.991Z,99683.83
2022-11-16T17:33:44.182Z,99689.44
2022-11-16T17:36:15.364Z,99686.56
2022-11-16T17:38:46.699Z,99687.06
2022-11-16T17:41:19.082Z,99681.14
2022-11-16T17:43:52.874Z,99680.82
2022-11-16T17:46:25.910Z,99679.96
2022-11-16T17:48:57.224Z,99683.15
2022-11-16T17:51:30.016Z,99679.93
2022-11-16T17:54:00.893Z,99684.34
2022-11-16T17:56:31.767Z,99683.85
2022-11-16T17:59:02.616Z,99686.04
2022-11-16T18:01:33.830Z,99685.87
2022-11-16T18:04:05.033Z,99686.90
2022-11-16T18:06:35.824Z,99687.26
2022-11-16T18:09:06.728Z,99684.55
2022-11-16T18:11:39.532Z,99688.64
2022-11-16T18:14:10.760Z,99677.95
2022-11-16T18:16:43.780Z,99679.79
2022-11-16T18:19:19.685Z,99678.76
2022-11-16T18:21:50.526Z,99685.86
2022-11-16T18:24:21.454Z,99682.63
2022-11-16T18:26:52.257Z,99688.05
2022-11-16T18:29:23.076Z,99688.39
2022-11-16T18:31:53.976Z,99690.43
2022-11-16T18:34:24.779Z,99683.66
2022-11-16T18:36:56.240Z,99682.80
2022-11-16T18:39:27.081Z,99680.27
2022-11-16T18:41:57.873Z,99683.61
2022-11-16T18:44:28.643Z,99681.58
2022-11-16T18:46:59.516Z,99685.96
2022-11-16T18:49:30.487Z,99684.79
2022-11-16T18:52:01.376Z,99684.61
2022-11-16T18:54:32.170Z,99688.85
2022-11-16T18:57:03.034Z,99683.77
2022-11-16T18:59:33.802Z,99683.11
2022-11-16T19:02:05.104Z,99688.20
2022-11-16T19:04:41.486Z,99688.70
2022-11-16T19:07:13.244Z,99686.34
2022-11-16T19:09:44.358Z,99687.52
2022-11-16T19:12:15.197Z,99690.74
2022-11-16T19:14:46.188Z,99690.92
2022-11-16T19:17:18.752Z,99693.45
2022-11-16T19:19:49.599Z,99690.93
2022-11-16T19:22:20.686Z,99691.44
2022-11-16T19:24:52.222Z,99689.41
2022-11-16T19:27:23.183Z,99691.08
2022-11-16T19:29:53.969Z,99694.13
2022-11-16T19:32:24.787Z,99691.59
2022-11-16T19:34:55.671Z,99696.17
2022-11-16T19:37:26.792Z,99693.64
2022-11-16T19:39:57.702Z,99694.32
2022-11-16T19:42:28.426Z,99685.00
2022-11-16T19:44:59.330Z,99690.05
2022-11-16T19:47:30.567Z,99689.02
2022-11-16T19:50:01.373Z,99691.05
2022-11-16T19:52:32.168Z,99690.38
2022-11-16T19:55:02.986Z,99691.21
2022-11-16T19:57:33.775Z,99689.35
2022-11-16T20:00:05.286Z,99690.70
2022-11-16T20:02:36.645Z,99688.67
2022-11-16T20:05:09.014Z,99693.09
2022-11-16T20:07:39.843Z,99696.64
2022-11-16T20:10:11.366Z,99704.41
2022-11-16T20:12:43.488Z,99701.34
2022-11-16T20:15:14.447Z,99701.33
2022-11-16T20:17:45.243Z,99706.37
2022-11-16T20:20:16.648Z,99707.89
2022-11-16T20:22:48.047Z,99710.06
2022-11-16T20:25:19.115Z,99708.50
2022-11-16T20:27:49.987Z,99712.40
2022-11-16T20:30:21.091Z,99711.73
2022-11-16T20:32:51.857Z,99706.02
2022-11-16T20:35:24.078Z,99705.54
2022-11-16T20:37:54.820Z,99704.88
2022-11-16T20:40:25.766Z,99704.88
2022-11-16T20:43:00.152Z,99709.45
2022-11-16T20:45:32.893Z,99704.52
2022-11-16T20:48:04.388Z,99700.58
2022-11-16T20:50:35.283Z,99700.04
2022-11-16T20:53:06.042Z,99697.50
2022-11-16T20:55:37.947Z,99704.41
2022-11-16T20:58:09.640Z,99696.30
2022-11-16T21:00:40.548Z,99702.39
2022-11-16T21:03:11.681Z,99698.68
2022-11-16T21:05:45.658Z,99704.11
2022-11-16T21:08:16.735Z,99707.16
2022-11-16T21:10:48.401Z,99705.79
2022-11-16T21:13:38.329Z,99704.27
2022-11-16T21:16:11.491Z,99714.59
2022-11-16T21:18:42.795Z,99703.77
2022-11-16T21:21:14.999Z,99706.17
2022-11-16T21:23:51.673Z,99703.47
2022-11-16T21:26:24.957Z,99706.70
2022-11-16T21:28:56.675Z,99707.56
2022-11-16T21:31:30.009Z,99704.83
2022-11-16T21:34:01.734Z,99709.20
2022-11-16T21:36:33.900Z,99708.69
2022-11-16T21:39:04.894Z,99704.81
2022-11-16T21:41:35.705Z,99700.93
2022-11-16T21:44:06.622Z,99703.13
2022-11-16T21:46:37.369Z,99701.95
2022-11-16T21:49:08.254Z,99699.08
2022-11-16T21:51:39.326Z,99700.95
2022-11-16T21:54:10.219Z,99697.08
2022-11-16T21:56:41.044Z,99697.39
2022-11-16T21:59:12.737Z,99689.95
2022-11-16T22:02:02.329Z,99695.22
2022-11-16T22:04:50.813Z,99699.45
2022-11-16T22:07:34.016Z,99698.63
2022-11-16T22:10:06.718Z,99700.98
2022-11-16T22:15:28.290Z,99698.13
2022-11-16T22:18:00.021Z,99697.11
2022-11-16T22:20:31.300Z,99698.98
2022-11-16T22:23:02.646Z,99697.11
2022-11-16T22:25:33.896Z,99696.60
2022-11-16T22:28:20.093Z,99701.98
2022-11-16T22:30:59.842Z,99699.42
2022-11-16T22:33:32.050Z,99698.23
2022-11-16T22:36:03.959Z,99696.55
2022-11-16T22:38:36.468Z,99697.44
2022-11-16T22:41:07.874Z,99699.46
2022-11-16T22:43:39.646Z,99698.61
2022-11-16T22:46:12.248Z,99702.48
2022-11-16T22:48:44.308Z,99701.64
2022-11-16T22:51:21.500Z,99705.17
2022-11-16T22:53:55.247Z,99697.19
2022-11-16T22:56:27.475Z,99696.67
2022-11-16T22:59:00.870Z,99695.33
2022-11-16T23:01:33.113Z,99697.70
2022-11-16T23:04:04.703Z,99692.80
2022-11-16T23:06:36.148Z,99691.13
2022-11-16T23:09:07.806Z,99690.11
2022-11-16T23:11:56.976Z,99695.71
2022-11-16T23:14:46.036Z,99691.12
2022-11-16T23:17:17.486Z,99691.46
2022-11-16T23:20:06.761Z,99692.95
2022-11-16T23:23:01.279Z,99691.91
2022-11-16T23:25:50.831Z,99692.73
2022-11-16T23:28:22.998Z,99692.88
2022-11-16T23:30:54.672Z,99693.39
2022-11-16T23:33:43.980Z,99698.81
2022-11-16T23:36:15.995Z,99691.36
2022-11-16T23:38:47.143Z,99698.30
2022-11-16T23:41:36.103Z,99702.67
2022-11-16T23:44:07.859Z,99694.05
2022-11-16T23:46:39.215Z,99693.70
2022-11-16T23:49:10.321Z,99697.09
2022-11-16T23:51:41.714Z,99699.60
2022-11-16T23:54:12.851Z,99697.90
2022-11-16T23:56:44.009Z,99699.91
2022-11-16T23:59:15.163Z,99704.62
